CYET

Details ICAO CYET (YET)
Name EDSON
Region Canada
Timezone America/Edmonton (UTC-7.0)
Plans Departing 2
Arriving 4
Stats Elevation 3,041 ft / 927 m (AMSL)
Location 53.578932° -116.465045°
Runways 1
Magnetic Variation 15.578° E
Sunrise 2017-12-17 15:59:28 UTC / 2017-12-17 08:59:28 Local
Sunset 2017-12-17 23:27:33 UTC / 2017-12-17 16:27:33 Local
Advertisement - Login to hide

Runways

ID Width Length Bearing (true) Bearing (mag) Surface Threshold Offset Overrun Length
07 100 ft / 30 m 5,981 ft / 1,823 m 90.62° 75.04° Asphalt 600 ft / 183 m 0 ft / 0 m
25 100 ft / 30 m 5,981 ft / 1,823 m 270.64° 255.06° Asphalt 500 ft / 152 m 0 ft / 0 m

Map

Weather


0- 5 10 15 20 25 30 35+ Temperature / ° C

Clouds and Precipitation
Forecast for 2017-12-17 12:00 UTC. Updated an hour ago

Ground ~20,000 ft ~40,000 ft Winds

METAR

CYET 171200Z AUTO 24008KT 9SM BKN200 BKN220 01/M08 A2951 RMK SLP028

TAF

Not found

Frequencies

Unicom 123.20 MHz CTAF
Warning: Do not use this data for real-world aviation or navigation. No guarantee of current accuracy is given.